Clackamas — WDF6614 — position and weather

sailwx.info

Track history (hours):
 
Tides and Currents Weather Stations Pressure Air Temp Water Temp Dewpoint Dewpoint Depression Visibility Wind Speed Wind Dir Waves Ship Positions

Clackamas

Owner: Port o Portland, Portland, OR. More information available from US FCC via Universal Licensing System and Coast Guard Vessel Documentation Center.

Last reported at 2015-Jul-31 02:33 UTC. Time now 2015-Jul-31 03:07 UTC.
Position N 46°15' W 123°34'.

MMSI: 367476049.

Date/timePositionNaut miles runAvg speedWind from/ knotsBaromVisibWave heightAir tempDewpointWater temp
2015-Jul-31 02:33N 46°15' W 123°34'0 0.0
2015-Jul-31 01:33N 46°15' W 123°34'0 0.0
2015-Jul-31 00:33N 46°15' W 123°34'0 0.0
2015-Jul-30 23:33N 46°15' W 123°34'0 0.0
2015-Jul-30 22:33N 46°15' W 123°34'0 0.0
2015-Jul-30 21:33N 46°15' W 123°34'1 0.5
2015-Jul-30 20:33N 46°16' W 123°33'2 1.8
2015-Jul-30 19:33N 46°16' W 123°31'2 2.0
2015-Jul-30 18:33N 46°16' W 123°28'0 0.0
2015-Jul-30 17:33N 46°16' W 123°28'5 4.7
2015-Jul-30 16:33N 46°15' W 123°34'0 0.3
2015-Jul-30 15:34N 46°15' W 123°34'0 0.3
2015-Jul-30 14:33N 46°15' W 123°34'0 0.0
2015-Jul-30 13:33N 46°15' W 123°34'0 0.0
2015-Jul-30 12:33N 46°15' W 123°34'0 0.0
2015-Jul-30 11:33N 46°15' W 123°34'0 0.2
2015-Jul-30 10:33N 46°15' W 123°34'0 0.2
2015-Jul-30 09:33N 46°16' W 123°34'0 0.1
2015-Jul-30 08:33N 46°15' W 123°34'0 0.3
2015-Jul-30 07:34N 46°15' W 123°34'0 0.2
2015-Jul-30 06:33N 46°15' W 123°34'0 0.0
2015-Jul-30 05:33N 46°15' W 123°34'0 0.0
2015-Jul-30 04:33N 46°15' W 123°34'0 0.0
2015-Jul-30 03:33N 46°15' W 123°34'0 0.0
2015-Jul-30 02:33N 46°15' W 123°34'0 0.0
2015-Jul-30 01:33N 46°15' W 123°34'0 0.0
2015-Jul-30 00:33N 46°15' W 123°34'0 0.0
2015-Jul-29 23:33N 46°15' W 123°34'0 0.0
2015-Jul-29 22:34N 46°15' W 123°34'0 0.3
2015-Jul-29 21:34N 46°16' W 123°34'0 0.4
2015-Jul-29 20:33N 46°16' W 123°34'0 0.4
2015-Jul-29 19:33N 46°16' W 123°33'1 1.1
2015-Jul-29 18:33N 46°15' W 123°34'1 0.5
2015-Jul-29 17:33N 46°16' W 123°34'0 0.2
2015-Jul-29 16:34N 46°16' W 123°34'0 0.2
2015-Jul-29 15:33N 46°15' W 123°34'0 0.0
2015-Jul-29 14:33N 46°15' W 123°34'0 0.1
2015-Jul-29 13:33N 46°15' W 123°34'0 0.0
2015-Jul-29 12:33N 46°15' W 123°34'0 0.0
2015-Jul-29 11:33N 46°15' W 123°34'0 0.0
2015-Jul-29 10:34N 46°15' W 123°34'0 0.1
2015-Jul-29 09:33N 46°16' W 123°34'0 0.5
2015-Jul-29 08:33N 46°15' W 123°34'0 0.0
2015-Jul-29 07:33N 46°15' W 123°34'0 0.4
2015-Jul-29 06:33N 46°15' W 123°34'0 0.0
2015-Jul-29 05:33N 46°15' W 123°34'0 0.0
2015-Jul-29 04:33N 46°15' W 123°34'0 0.0
2015-Jul-29 03:33N 46°15' W 123°34'0 0.0
2015-Jul-29 02:33N 46°15' W 123°34'0 0.0
2015-Jul-29 01:33N 46°15' W 123°34'0 0.0
2015-Jul-29 00:33N 46°15' W 123°34'0 0.0
2015-Jul-28 23:33N 46°15' W 123°34'0 0.0
2015-Jul-28 22:33N 46°15' W 123°34'0 0.2
2015-Jul-28 21:33N 46°16' W 123°33'0 0.1
2015-Jul-28 20:33N 46°16' W 123°34'0 0.1
2015-Jul-28 19:33N 46°15' W 123°33'1 0.6
2015-Jul-28 18:33N 46°15' W 123°34'0 0.0
2015-Jul-28 17:33N 46°15' W 123°34'1 0.6
2015-Jul-28 16:33N 46°15' W 123°34'0 0.0
2015-Jul-28 15:33N 46°15' W 123°34'0 0.0
2015-Jul-28 14:33N 46°15' W 123°34'0 0.0
2015-Jul-28 13:33N 46°15' W 123°34'0 0.1
2015-Jul-28 12:34N 46°16' W 123°34'0 0.0
2015-Jul-28 11:33N 46°15' W 123°34'0 0.1
2015-Jul-28 10:33N 46°16' W 123°34'0 0.1
2015-Jul-28 09:33N 46°15' W 123°34'0 0.1
2015-Jul-28 08:34N 46°16' W 123°33'0 0.1
2015-Jul-28 07:34N 46°16' W 123°33'0 0.1
2015-Jul-28 06:33N 46°15' W 123°33'0 0.1
2015-Jul-28 05:33N 46°15' W 123°34'0 0.0
2015-Jul-28 04:33N 46°15' W 123°34'0 0.0
2015-Jul-28 03:33N 46°15' W 123°34'0 0.0
2015-Jul-28 02:34N 46°15' W 123°34'0 0.0
2015-Jul-28 01:33N 46°15' W 123°34'0 0.1
2015-Jul-28 00:33N 46°16' W 123°33'0 0.5
2015-Jul-27 23:33N 46°15' W 123°34'0 0.4
2015-Jul-27 22:33N 46°15' W 123°33'0 0.1
2015-Jul-27 21:33N 46°16' W 123°33'0 0.1
2015-Jul-27 20:33N 46°16' W 123°33'0 0.3
2015-Jul-27 19:33N 46°16' W 123°33'0 0.4
2015-Jul-27 18:33N 46°15' W 123°33'0 0.1
2015-Jul-27 17:34N 46°16' W 123°34'0 0.1
2015-Jul-27 16:33N 46°16' W 123°33'0 0.1
2015-Jul-27 15:33N 46°15' W 123°33'0 0.1
2015-Jul-27 14:33N 46°15' W 123°34'0 0.1
2015-Jul-27 13:33N 46°16' W 123°33'0 0.0
2015-Jul-27 12:33N 46°16' W 123°33'0 0.0
2015-Jul-27 11:33N 46°16' W 123°33'0 0.0
2015-Jul-27 10:33N 46°16' W 123°33'0 0.0
2015-Jul-27 09:33N 46°16' W 123°33'0 0.0
2015-Jul-27 08:33N 46°16' W 123°33'0 0.0
2015-Jul-27 07:33N 46°16' W 123°33'0 0.0
2015-Jul-27 06:33N 46°16' W 123°33'0 0.0
2015-Jul-27 05:33N 46°16' W 123°33'0 0.0
2015-Jul-27 04:33N 46°16' W 123°33'0 0.0
2015-Jul-27 03:33N 46°16' W 123°33'0 0.0
2015-Jul-27 02:33N 46°16' W 123°33'0 0.0
2015-Jul-27 01:34N 46°16' W 123°33'0 0.0
2015-Jul-27 00:33N 46°16' W 123°33'0 0.0
2015-Jul-26 23:33N 46°16' W 123°33'0 0.0
2015-Jul-26 22:33N 46°16' W 123°33'0 0.0
2015-Jul-26 21:33N 46°16' W 123°33'0 0.0
2015-Jul-26 20:33N 46°16' W 123°33'0 0.0
2015-Jul-26 19:33N 46°16' W 123°33'0 0.0
2015-Jul-26 18:33N 46°16' W 123°33'0 0.0
2015-Jul-26 17:33N 46°16' W 123°33'0 0.0
2015-Jul-26 16:33N 46°16' W 123°33'0 0.0
2015-Jul-26 15:33N 46°16' W 123°33'0 0.0
2015-Jul-26 14:33N 46°16' W 123°33'0 0.0
2015-Jul-26 13:33N 46°16' W 123°33'0 0.0
2015-Jul-26 12:33N 46°16' W 123°33'0 0.0
2015-Jul-26 11:33N 46°16' W 123°33'0 0.0
2015-Jul-26 10:33N 46°16' W 123°33'0 0.0
2015-Jul-26 09:33N 46°16' W 123°33'0 0.0
2015-Jul-26 08:33N 46°16' W 123°33'0 0.0
2015-Jul-26 07:33N 46°16' W 123°33'0 0.0
2015-Jul-26 06:33N 46°16' W 123°33'0 0.0
2015-Jul-26 05:33N 46°16' W 123°33'0 0.0
2015-Jul-26 04:33N 46°16' W 123°33'0 0.0
2015-Jul-26 03:33N 46°16' W 123°33'0 0.0
2015-Jul-26 02:33N 46°16' W 123°33'0 0.0
2015-Jul-26 01:33N 46°16' W 123°33'0 0.0
2015-Jul-26 00:33N 46°16' W 123°33'0 0.0
2015-Jul-25 23:33N 46°16' W 123°33'0 0.0
2015-Jul-25 22:33N 46°16' W 123°33'0 0.0
2015-Jul-25 21:33N 46°16' W 123°33'0 0.0
2015-Jul-25 20:33N 46°16' W 123°33'0 0.0
2015-Jul-25 19:33N 46°16' W 123°33'0 0.0
2015-Jul-25 18:33N 46°16' W 123°33'0 0.0
2015-Jul-25 17:33N 46°16' W 123°33'0 0.0
2015-Jul-25 16:33N 46°16' W 123°33'0 0.0
2015-Jul-25 15:33N 46°16' W 123°33'0 0.0
2015-Jul-25 14:33N 46°16' W 123°33'0 0.0
2015-Jul-25 13:33N 46°16' W 123°33'0 0.0
2015-Jul-25 12:34N 46°15' W 123°33'0 0.2
2015-Jul-25 11:34N 46°15' W 123°33'0 0.1
2015-Jul-25 10:33N 46°15' W 123°33'0 0.0
2015-Jul-25 09:33N 46°15' W 123°33'0 0.1
2015-Jul-25 08:33N 46°16' W 123°33'0 0.1
2015-Jul-25 07:34N 46°16' W 123°33'0 0.1
2015-Jul-25 06:33N 46°15' W 123°33'0 0.0
2015-Jul-25 05:33N 46°15' W 123°33'0 0.0
2015-Jul-25 04:33N 46°15' W 123°33'0 0.0
2015-Jul-25 03:33N 46°15' W 123°33'0 0.0
2015-Jul-25 02:33N 46°15' W 123°33'0 0.0
2015-Jul-25 01:33N 46°15' W 123°33'0 0.0
2015-Jul-25 00:33N 46°15' W 123°33'0 0.0
2015-Jul-24 23:34N 46°15' W 123°33'0 0.0
2015-Jul-24 22:33N 46°15' W 123°33'0 0.0
2015-Jul-24 21:33N 46°15' W 123°33'0 0.4
2015-Jul-24 20:33N 46°15' W 123°34'0 0.0
2015-Jul-24 19:33N 46°15' W 123°34'0 0.0
2015-Jul-24 18:33N 46°15' W 123°34'0 0.0
2015-Jul-24 17:33N 46°15' W 123°34'0 0.1
2015-Jul-24 16:33N 46°16' W 123°34'0 0.0
2015-Jul-24 15:33N 46°16' W 123°34'1 0.5
2015-Jul-24 14:34N 46°15' W 123°33'0 0.1
2015-Jul-24 13:33N 46°15' W 123°33'0 0.0
2015-Jul-24 12:34N 46°15' W 123°33'0 0.1
2015-Jul-24 11:34N 46°16' W 123°33'0 0.1
2015-Jul-24 10:34N 46°15' W 123°33'0 0.0
2015-Jul-24 09:33N 46°15' W 123°33'0 0.0
2015-Jul-24 08:34N 46°15' W 123°33'0 0.0
2015-Jul-24 07:33N 46°15' W 123°33'0 0.1
2015-Jul-24 06:34N 46°16' W 123°33'0 0.0
2015-Jul-24 05:33N 46°15' W 123°33'0 0.0
2015-Jul-24 04:33N 46°15' W 123°33'0 0.0
2015-Jul-24 03:33N 46°15' W 123°33'0 0.0
2015-Jul-24 02:33N 46°15' W 123°33'0 0.0
2015-Jul-24 01:33N 46°15' W 123°33'0 0.0
2015-Jul-24 00:33N 46°15' W 123°33'0 0.0
2015-Jul-23 23:34N 46°15' W 123°33'0 0.0
2015-Jul-23 22:33N 46°15' W 123°33'0 0.0
2015-Jul-23 21:33N 46°15' W 123°33'0 0.7
2015-Jul-23 21:04N 46°16' W 123°34'0 0.4
2015-Jul-23 20:33N 46°15' W 123°34'0 2.2
2015-Jul-23 20:28N 46°16' W 123°34'0 0.5
2015-Jul-23 19:32N 46°16' W 123°33'1 0.9
2015-Jul-23 18:33N 46°15' W 123°34'4 7.3
2015-Jul-23 17:57N 46°16' W 123°28'0 0.1
2015-Jul-23 17:33N 46°16' W 123°28'0 0.0
2015-Jul-23 16:56N 46°16' W 123°28'0 1.0
2015-Jul-23 16:34N 46°16' W 123°28'4 4.3
2015-Jul-23 15:34N 46°15' W 123°34'1 0.8
2015-Jul-23 14:33N 46°15' W 123°33'0 0.0
2015-Jul-23 13:33N 46°15' W 123°33'0 0.0
2015-Jul-23 12:33N 46°15' W 123°33'0 0.0
2015-Jul-23 11:33N 46°15' W 123°33'0 0.0
2015-Jul-23 10:33N 46°16' W 123°33'0 0.0
2015-Jul-23 10:32N 46°16' W 123°33'1 0.6
2015-Jul-23 09:34N 46°15' W 123°34'0 0.0
2015-Jul-23 09:22N 46°15' W 123°34'0 0.0
2015-Jul-23 08:33N 46°15' W 123°34'0 0.0
2015-Jul-23 07:33N 46°15' W 123°34'1 0.7
2015-Jul-23 06:46N 46°15' W 123°33'0 0.0
2015-Jul-23 06:34N 46°16' W 123°33'0 0.0
2015-Jul-23 06:31N 46°16' W 123°33'0 0.0
2015-Jul-23 05:36N 46°15' W 123°33'0 0.0
2015-Jul-23 05:33N 46°15' W 123°33'0 0.0
2015-Jul-23 04:33N 46°15' W 123°33'0 0.0
2015-Jul-23 04:16N 46°15' W 123°33'0 0.0
2015-Jul-23 03:33N 46°15' W 123°33'0 0.0
2015-Jul-23 02:34N 46°15' W 123°33'0 0.0
2015-Jul-23 01:35N 46°15' W 123°33'0 0.0
2015-Jul-23 01:33N 46°15' W 123°33'0 0.0
2015-Jul-23 00:33N 46°15' W 123°33'0 0.0
2015-Jul-22 23:33N 46°15' W 123°33'0 0.0
2015-Jul-22 22:59N 46°15' W 123°33'0 0.0
2015-Jul-22 22:33N 46°16' W 123°33'0 0.1
2015-Jul-22 21:33N 46°15' W 123°33'0 1.5
2015-Jul-22 21:18N 46°16' W 123°33'1 1.3
2015-Jul-22 20:34N 46°15' W 123°34'0 0.0
2015-Jul-22 19:34N 46°15' W 123°34'0 0.8
2015-Jul-22 19:18N 46°15' W 123°34'0 0.0
2015-Jul-22 18:33N 46°15' W 123°34'1 0.6
2015-Jul-22 17:34N 46°16' W 123°34'0 0.0
2015-Jul-22 16:34N 46°16' W 123°34'0 0.5
2015-Jul-22 15:34N 46°15' W 123°34'1 0.7
2015-Jul-22 14:34N 46°15' W 123°33'0 0.1
2015-Jul-22 13:33N 46°16' W 123°33'0 0.1
2015-Jul-22 12:34N 46°16' W 123°33'0 0.8
2015-Jul-22 12:25N 46°16' W 123°33'0 0.2
2015-Jul-22 11:33N 46°15' W 123°33'0 0.0
2015-Jul-22 11:25N 46°15' W 123°33'0 0.4
2015-Jul-22 10:34N 46°16' W 123°33'0 0.3
2015-Jul-22 09:34N 46°16' W 123°33'0 0.1
2015-Jul-22 08:34N 46°15' W 123°33'0 0.1
2015-Jul-22 07:34N 46°16' W 123°33'0 4.5
2015-Jul-22 07:34N 46°16' W 123°33'0 1.5
2015-Jul-22 07:29N 46°15' W 123°33'0 0.0
2015-Jul-21 21:29N 46°16' W 123°33'0 0.0
2015-Jul-21 20:32N 46°15' W 123°33'0 0.0
2015-Jul-21 19:32N 46°15' W 123°33'0 0.0
2015-Jul-21 18:32N 46°16' W 123°33'0 0.0
2015-Jul-21 17:29N 46°15' W 123°33'0 0.0
2015-Jul-21 16:29N 46°16' W 123°33'0 0.0
2015-Jul-21 15:32N 46°16' W 123°33'0 0.0
2015-Jul-21 14:32N 46°16' W 123°33'0 0.0
2015-Jul-21 13:32N 46°16' W 123°33'0 0.1
2015-Jul-21 12:33N 46°16' W 123°33'1 0.6
2015-Jul-21 11:40N 46°16' W 123°34'0 0.0
2015-Jul-21 11:31N 46°16' W 123°34'0 0.0
2015-Jul-21 10:31N 46°16' W 123°34'0 0.0
2015-Jul-21 09:31N 46°16' W 123°34'0 0.7
2015-Jul-21 08:59N 46°16' W 123°33'0 0.3
2015-Jul-21 08:33N 46°16' W 123°33'0 0.1
2015-Jul-21 07:34N 46°15' W 123°33'0 0.0
2015-Jul-21 07:33N 46°15' W 123°33'0 0.1
2015-Jul-21 06:31N 46°16' W 123°33'0 0.0
2015-Jul-21 05:25N 46°16' W 123°33'0 0.0
2015-Jul-21 04:31N 46°16' W 123°33'0 0.0
2015-Jul-21 03:25N 46°16' W 123°33'  
Track history (hours):
 
Tides and Currents Weather Stations Pressure Air Temp Water Temp Dewpoint Dewpoint Depression Visibility Wind Speed Wind Dir Waves Ship Positions

Clackamas

Owner: Port o Portland, Portland, OR. More information available from US FCC via Universal Licensing System and Coast Guard Vessel Documentation Center.

Last reported at 2015-Jul-31 02:33 UTC. Time now 2015-Jul-31 03:07 UTC.
Position N 46°15' W 123°34'.

MMSI: 367476049.

Date/timePositionNaut miles runAvg speedWind from/ knotsBaromVisibWave heightAir tempDewpointWater temp
2015-Jul-31 02:33N 46°15' W 123°34'0 0.0
2015-Jul-31 01:33N 46°15' W 123°34'0 0.0
2015-Jul-31 00:33N 46°15' W 123°34'0 0.0
2015-Jul-30 23:33N 46°15' W 123°34'0 0.0
2015-Jul-30 22:33N 46°15' W 123°34'0 0.0
2015-Jul-30 21:33N 46°15' W 123°34'1 0.5
2015-Jul-30 20:33N 46°16' W 123°33'2 1.8
2015-Jul-30 19:33N 46°16' W 123°31'2 2.0
2015-Jul-30 18:33N 46°16' W 123°28'0 0.0
2015-Jul-30 17:33N 46°16' W 123°28'5 4.7
2015-Jul-30 16:33N 46°15' W 123°34'0 0.3
2015-Jul-30 15:34N 46°15' W 123°34'0 0.3
2015-Jul-30 14:33N 46°15' W 123°34'0 0.0
2015-Jul-30 13:33N 46°15' W 123°34'0 0.0
2015-Jul-30 12:33N 46°15' W 123°34'0 0.0
2015-Jul-30 11:33N 46°15' W 123°34'0 0.2
2015-Jul-30 10:33N 46°15' W 123°34'0 0.2
2015-Jul-30 09:33N 46°16' W 123°34'0 0.1
2015-Jul-30 08:33N 46°15' W 123°34'0 0.3
2015-Jul-30 07:34N 46°15' W 123°34'0 0.2
2015-Jul-30 06:33N 46°15' W 123°34'0 0.0
2015-Jul-30 05:33N 46°15' W 123°34'0 0.0
2015-Jul-30 04:33N 46°15' W 123°34'0 0.0
2015-Jul-30 03:33N 46°15' W 123°34'0 0.0
2015-Jul-30 02:33N 46°15' W 123°34'0 0.0
2015-Jul-30 01:33N 46°15' W 123°34'0 0.0
2015-Jul-30 00:33N 46°15' W 123°34'0 0.0
2015-Jul-29 23:33N 46°15' W 123°34'0 0.0
2015-Jul-29 22:34N 46°15' W 123°34'0 0.3
2015-Jul-29 21:34N 46°16' W 123°34'0 0.4
2015-Jul-29 20:33N 46°16' W 123°34'0 0.4
2015-Jul-29 19:33N 46°16' W 123°33'1 1.1
2015-Jul-29 18:33N 46°15' W 123°34'1 0.5
2015-Jul-29 17:33N 46°16' W 123°34'0 0.2
2015-Jul-29 16:34N 46°16' W 123°34'0 0.2
2015-Jul-29 15:33N 46°15' W 123°34'0 0.0
2015-Jul-29 14:33N 46°15' W 123°34'0 0.1
2015-Jul-29 13:33N 46°15' W 123°34'0 0.0
2015-Jul-29 12:33N 46°15' W 123°34'0 0.0
2015-Jul-29 11:33N 46°15' W 123°34'0 0.0
2015-Jul-29 10:34N 46°15' W 123°34'0 0.1
2015-Jul-29 09:33N 46°16' W 123°34'0 0.5
2015-Jul-29 08:33N 46°15' W 123°34'0 0.0
2015-Jul-29 07:33N 46°15' W 123°34'0 0.4
2015-Jul-29 06:33N 46°15' W 123°34'0 0.0
2015-Jul-29 05:33N 46°15' W 123°34'0 0.0
2015-Jul-29 04:33N 46°15' W 123°34'0 0.0
2015-Jul-29 03:33N 46°15' W 123°34'0 0.0
2015-Jul-29 02:33N 46°15' W 123°34'0 0.0
2015-Jul-29 01:33N 46°15' W 123°34'0 0.0
2015-Jul-29 00:33N 46°15' W 123°34'0 0.0
2015-Jul-28 23:33N 46°15' W 123°34'0 0.0
2015-Jul-28 22:33N 46°15' W 123°34'0 0.2
2015-Jul-28 21:33N 46°16' W 123°33'0 0.1
2015-Jul-28 20:33N 46°16' W 123°34'0 0.1
2015-Jul-28 19:33N 46°15' W 123°33'1 0.6
2015-Jul-28 18:33N 46°15' W 123°34'0 0.0
2015-Jul-28 17:33N 46°15' W 123°34'1 0.6
2015-Jul-28 16:33N 46°15' W 123°34'0 0.0
2015-Jul-28 15:33N 46°15' W 123°34'0 0.0
2015-Jul-28 14:33N 46°15' W 123°34'0 0.0
2015-Jul-28 13:33N 46°15' W 123°34'0 0.1
2015-Jul-28 12:34N 46°16' W 123°34'0 0.0
2015-Jul-28 11:33N 46°15' W 123°34'0 0.1
2015-Jul-28 10:33N 46°16' W 123°34'0 0.1
2015-Jul-28 09:33N 46°15' W 123°34'0 0.1
2015-Jul-28 08:34N 46°16' W 123°33'0 0.1
2015-Jul-28 07:34N 46°16' W 123°33'0 0.1
2015-Jul-28 06:33N 46°15' W 123°33'0 0.1
2015-Jul-28 05:33N 46°15' W 123°34'0 0.0
2015-Jul-28 04:33N 46°15' W 123°34'0 0.0
2015-Jul-28 03:33N 46°15' W 123°34'0 0.0
2015-Jul-28 02:34N 46°15' W 123°34'0 0.0
2015-Jul-28 01:33N 46°15' W 123°34'0 0.1
2015-Jul-28 00:33N 46°16' W 123°33'0 0.5
2015-Jul-27 23:33N 46°15' W 123°34'0 0.4
2015-Jul-27 22:33N 46°15' W 123°33'0 0.1
2015-Jul-27 21:33N 46°16' W 123°33'0 0.1
2015-Jul-27 20:33N 46°16' W 123°33'0 0.3
2015-Jul-27 19:33N 46°16' W 123°33'0 0.4
2015-Jul-27 18:33N 46°15' W 123°33'0 0.1
2015-Jul-27 17:34N 46°16' W 123°34'0 0.1
2015-Jul-27 16:33N 46°16' W 123°33'0 0.1
2015-Jul-27 15:33N 46°15' W 123°33'0 0.1
2015-Jul-27 14:33N 46°15' W 123°34'0 0.1
2015-Jul-27 13:33N 46°16' W 123°33'0 0.0
2015-Jul-27 12:33N 46°16' W 123°33'0 0.0
2015-Jul-27 11:33N 46°16' W 123°33'0 0.0
2015-Jul-27 10:33N 46°16' W 123°33'0 0.0
2015-Jul-27 09:33N 46°16' W 123°33'0 0.0
2015-Jul-27 08:33N 46°16' W 123°33'0 0.0
2015-Jul-27 07:33N 46°16' W 123°33'0 0.0
2015-Jul-27 06:33N 46°16' W 123°33'0 0.0
2015-Jul-27 05:33N 46°16' W 123°33'0 0.0
2015-Jul-27 04:33N 46°16' W 123°33'0 0.0
2015-Jul-27 03:33N 46°16' W 123°33'0 0.0
2015-Jul-27 02:33N 46°16' W 123°33'0 0.0
2015-Jul-27 01:34N 46°16' W 123°33'0 0.0
2015-Jul-27 00:33N 46°16' W 123°33'0 0.0
2015-Jul-26 23:33N 46°16' W 123°33'0 0.0
2015-Jul-26 22:33N 46°16' W 123°33'0 0.0
2015-Jul-26 21:33N 46°16' W 123°33'0 0.0
2015-Jul-26 20:33N 46°16' W 123°33'0 0.0
2015-Jul-26 19:33N 46°16' W 123°33'0 0.0
2015-Jul-26 18:33N 46°16' W 123°33'0 0.0
2015-Jul-26 17:33N 46°16' W 123°33'0 0.0
2015-Jul-26 16:33N 46°16' W 123°33'0 0.0
2015-Jul-26 15:33N 46°16' W 123°33'0 0.0
2015-Jul-26 14:33N 46°16' W 123°33'0 0.0
2015-Jul-26 13:33N 46°16' W 123°33'0 0.0
2015-Jul-26 12:33N 46°16' W 123°33'0 0.0
2015-Jul-26 11:33N 46°16' W 123°33'0 0.0
2015-Jul-26 10:33N 46°16' W 123°33'0 0.0
2015-Jul-26 09:33N 46°16' W 123°33'0 0.0
2015-Jul-26 08:33N 46°16' W 123°33'0 0.0
2015-Jul-26 07:33N 46°16' W 123°33'0 0.0
2015-Jul-26 06:33N 46°16' W 123°33'0 0.0
2015-Jul-26 05:33N 46°16' W 123°33'0 0.0
2015-Jul-26 04:33N 46°16' W 123°33'0 0.0
2015-Jul-26 03:33N 46°16' W 123°33'0 0.0
2015-Jul-26 02:33N 46°16' W 123°33'0 0.0
2015-Jul-26 01:33N 46°16' W 123°33'0 0.0
2015-Jul-26 00:33N 46°16' W 123°33'0 0.0
2015-Jul-25 23:33N 46°16' W 123°33'0 0.0
2015-Jul-25 22:33N 46°16' W 123°33'0 0.0
2015-Jul-25 21:33N 46°16' W 123°33'0 0.0
2015-Jul-25 20:33N 46°16' W 123°33'0 0.0
2015-Jul-25 19:33N 46°16' W 123°33'0 0.0
2015-Jul-25 18:33N 46°16' W 123°33'0 0.0
2015-Jul-25 17:33N 46°16' W 123°33'0 0.0
2015-Jul-25 16:33N 46°16' W 123°33'0 0.0
2015-Jul-25 15:33N 46°16' W 123°33'0 0.0
2015-Jul-25 14:33N 46°16' W 123°33'0 0.0
2015-Jul-25 13:33N 46°16' W 123°33'0 0.0
2015-Jul-25 12:34N 46°15' W 123°33'0 0.2
2015-Jul-25 11:34N 46°15' W 123°33'0 0.1
2015-Jul-25 10:33N 46°15' W 123°33'0 0.0
2015-Jul-25 09:33N 46°15' W 123°33'0 0.1
2015-Jul-25 08:33N 46°16' W 123°33'0 0.1
2015-Jul-25 07:34N 46°16' W 123°33'0 0.1
2015-Jul-25 06:33N 46°15' W 123°33'0 0.0
2015-Jul-25 05:33N 46°15' W 123°33'0 0.0
2015-Jul-25 04:33N 46°15' W 123°33'0 0.0
2015-Jul-25 03:33N 46°15' W 123°33'0 0.0
2015-Jul-25 02:33N 46°15' W 123°33'0 0.0
2015-Jul-25 01:33N 46°15' W 123°33'0 0.0
2015-Jul-25 00:33N 46°15' W 123°33'0 0.0
2015-Jul-24 23:34N 46°15' W 123°33'0 0.0
2015-Jul-24 22:33N 46°15' W 123°33'0 0.0
2015-Jul-24 21:33N 46°15' W 123°33'0 0.4
2015-Jul-24 20:33N 46°15' W 123°34'0 0.0
2015-Jul-24 19:33N 46°15' W 123°34'0 0.0
2015-Jul-24 18:33N 46°15' W 123°34'0 0.0
2015-Jul-24 17:33N 46°15' W 123°34'0 0.1
2015-Jul-24 16:33N 46°16' W 123°34'0 0.0
2015-Jul-24 15:33N 46°16' W 123°34'1 0.5
2015-Jul-24 14:34N 46°15' W 123°33'0 0.1
2015-Jul-24 13:33N 46°15' W 123°33'0 0.0
2015-Jul-24 12:34N 46°15' W 123°33'0 0.1
2015-Jul-24 11:34N 46°16' W 123°33'0 0.1
2015-Jul-24 10:34N 46°15' W 123°33'0 0.0
2015-Jul-24 09:33N 46°15' W 123°33'0 0.0
2015-Jul-24 08:34N 46°15' W 123°33'0 0.0
2015-Jul-24 07:33N 46°15' W 123°33'0 0.1
2015-Jul-24 06:34N 46°16' W 123°33'0 0.0
2015-Jul-24 05:33N 46°15' W 123°33'0 0.0
2015-Jul-24 04:33N 46°15' W 123°33'0 0.0
2015-Jul-24 03:33N 46°15' W 123°33'0 0.0
2015-Jul-24 02:33N 46°15' W 123°33'0 0.0
2015-Jul-24 01:33N 46°15' W 123°33'0 0.0
2015-Jul-24 00:33N 46°15' W 123°33'0 0.0
2015-Jul-23 23:34N 46°15' W 123°33'0 0.0
2015-Jul-23 22:33N 46°15' W 123°33'0 0.0
2015-Jul-23 21:33N 46°15' W 123°33'0 0.7
2015-Jul-23 21:04N 46°16' W 123°34'0 0.4
2015-Jul-23 20:33N 46°15' W 123°34'0 2.2
2015-Jul-23 20:28N 46°16' W 123°34'0 0.5
2015-Jul-23 19:32N 46°16' W 123°33'1 0.9
2015-Jul-23 18:33N 46°15' W 123°34'4 7.3
2015-Jul-23 17:57N 46°16' W 123°28'0 0.1
2015-Jul-23 17:33N 46°16' W 123°28'0 0.0
2015-Jul-23 16:56N 46°16' W 123°28'0 1.0
2015-Jul-23 16:34N 46°16' W 123°28'4 4.3
2015-Jul-23 15:34N 46°15' W 123°34'1 0.8
2015-Jul-23 14:33N 46°15' W 123°33'0 0.0
2015-Jul-23 13:33N 46°15' W 123°33'0 0.0
2015-Jul-23 12:33N 46°15' W 123°33'0 0.0
2015-Jul-23 11:33N 46°15' W 123°33'0 0.0
2015-Jul-23 10:33N 46°16' W 123°33'0 0.0
2015-Jul-23 10:32N 46°16' W 123°33'1 0.6
2015-Jul-23 09:34N 46°15' W 123°34'0 0.0
2015-Jul-23 09:22N 46°15' W 123°34'0 0.0
2015-Jul-23 08:33N 46°15' W 123°34'0 0.0
2015-Jul-23 07:33N 46°15' W 123°34'1 0.7
2015-Jul-23 06:46N 46°15' W 123°33'0 0.0
2015-Jul-23 06:34N 46°16' W 123°33'0 0.0
2015-Jul-23 06:31N 46°16' W 123°33'0 0.0
2015-Jul-23 05:36N 46°15' W 123°33'0 0.0
2015-Jul-23 05:33N 46°15' W 123°33'0 0.0
2015-Jul-23 04:33N 46°15' W 123°33'0 0.0
2015-Jul-23 04:16N 46°15' W 123°33'0 0.0
2015-Jul-23 03:33N 46°15' W 123°33'0 0.0
2015-Jul-23 02:34N 46°15' W 123°33'0 0.0
2015-Jul-23 01:35N 46°15' W 123°33'0 0.0
2015-Jul-23 01:33N 46°15' W 123°33'0 0.0
2015-Jul-23 00:33N 46°15' W 123°33'0 0.0
2015-Jul-22 23:33N 46°15' W 123°33'0 0.0
2015-Jul-22 22:59N 46°15' W 123°33'0 0.0
2015-Jul-22 22:33N 46°16' W 123°33'0 0.1
2015-Jul-22 21:33N 46°15' W 123°33'0 1.5
2015-Jul-22 21:18N 46°16' W 123°33'1 1.3
2015-Jul-22 20:34N 46°15' W 123°34'0 0.0
2015-Jul-22 19:34N 46°15' W 123°34'0 0.8
2015-Jul-22 19:18N 46°15' W 123°34'0 0.0
2015-Jul-22 18:33N 46°15' W 123°34'1 0.6
2015-Jul-22 17:34N 46°16' W 123°34'0 0.0
2015-Jul-22 16:34N 46°16' W 123°34'0 0.5
2015-Jul-22 15:34N 46°15' W 123°34'1 0.7
2015-Jul-22 14:34N 46°15' W 123°33'0 0.1
2015-Jul-22 13:33N 46°16' W 123°33'0 0.1
2015-Jul-22 12:34N 46°16' W 123°33'0 0.8
2015-Jul-22 12:25N 46°16' W 123°33'0 0.2
2015-Jul-22 11:33N 46°15' W 123°33'0 0.0
2015-Jul-22 11:25N 46°15' W 123°33'0 0.4
2015-Jul-22 10:34N 46°16' W 123°33'0 0.3
2015-Jul-22 09:34N 46°16' W 123°33'0 0.1
2015-Jul-22 08:34N 46°15' W 123°33'0 0.1
2015-Jul-22 07:34N 46°16' W 123°33'0 4.5
2015-Jul-22 07:34N 46°16' W 123°33'0 1.5
2015-Jul-22 07:29N 46°15' W 123°33'0 0.0
2015-Jul-21 21:29N 46°16' W 123°33'0 0.0
2015-Jul-21 20:32N 46°15' W 123°33'0 0.0
2015-Jul-21 19:32N 46°15' W 123°33'0 0.0
2015-Jul-21 18:32N 46°16' W 123°33'0 0.0
2015-Jul-21 17:29N 46°15' W 123°33'0 0.0
2015-Jul-21 16:29N 46°16' W 123°33'0 0.0
2015-Jul-21 15:32N 46°16' W 123°33'0 0.0
2015-Jul-21 14:32N 46°16' W 123°33'0 0.0
2015-Jul-21 13:32N 46°16' W 123°33'0 0.1
2015-Jul-21 12:33N 46°16' W 123°33'1 0.6
2015-Jul-21 11:40N 46°16' W 123°34'0 0.0
2015-Jul-21 11:31N 46°16' W 123°34'0 0.0
2015-Jul-21 10:31N 46°16' W 123°34'0 0.0
2015-Jul-21 09:31N 46°16' W 123°34'0 0.7
2015-Jul-21 08:59N 46°16' W 123°33'0 0.3
2015-Jul-21 08:33N 46°16' W 123°33'0 0.1
2015-Jul-21 07:34N 46°15' W 123°33'0 0.0
2015-Jul-21 07:33N 46°15' W 123°33'0 0.1
2015-Jul-21 06:31N 46°16' W 123°33'0 0.0
2015-Jul-21 05:25N 46°16' W 123°33'0 0.0
2015-Jul-21 04:31N 46°16' W 123°33'0 0.0
2015-Jul-21 03:25N 46°16' W 123°33'  

Dump ship's entire track history